Rms Queen Mary 2 — ZCEF6 — position and weather

sailwx.info

Track history (hours):
 
Tides and Currents Weather Stations Pressure Air Temp Water Temp Dewpoint Dewpoint Depression Visibility Wind Speed Wind Dir Waves Ship Positions

Rms Queen Mary 2

Last reported at 2018-Nov-10 03:00 UTC. Time now 2018-Nov-14 03:29 UTC.
Position N 41°24' W 060°48'.

Length 345 m; draft 10.3 m.

Type: Passenger vessel. MMSI: 310627000.

Wind from 270 at 25 knots

Barometer 1026.9 mb
Air temperature 13.5 ° C
Visibility: greater than 10.8 NM
Dewpoint 8.5 ° C
Water temperature 19.1 ° C

Date/timePositionNaut miles runAvg speedWind from/ knotsBaromVisibWave heightAir tempDewpointWater temp
2018-Nov-10 03:00N 41°24' W 060°48'26920.7 270 / 251026.910.8 13.5 8.519.1
2018-Nov-09 14:00N 42°18' W 054°54'25221.0 300 / 201028.310.8 13.5 7.4 8.8
2018-Nov-09 02:00N 43°06' W 049°18'   270 / 301020.927.0
2018-Nov-05 03:21N 49°42' W 004°33'620.5
2018-Nov-05 03:03N 49°43' W 004°23'220.4
2018-Nov-05 02:58N 49°43' W 004°21'1120.5
2018-Nov-05 02:26N 49°47' W 004°05'820.8
2018-Nov-05 02:01N 49°49' W 003°52'421.3
2018-Nov-05 01:51N 49°50' W 003°47'721.3
2018-Nov-05 01:30N 49°52' W 003°36'1022.2
2018-Nov-05 01:03N 49°55' W 003°21'122.2
2018-Nov-05 01:00N 49°56' W 003°19'1121.5
2018-Nov-05 00:30N 49°59' W 003°03'920.2
2018-Nov-05 00:03N 50°01' W 002°50'220.7
2018-Nov-04 23:58N 50°01' W 002°47'2720.9
2018-Nov-04 22:41N 50°12' W 002°08'420.7
2018-Nov-04 22:30N 50°13' W 002°03'920.3
2018-Nov-04 22:03N 50°18' W 001°50'120.1
2018-Nov-04 22:00N 50°19' W 001°49'1019.6
2018-Nov-04 21:30N 50°23' W 001°36'919.5
2018-Nov-04 21:02N 50°26' W 001°22'119.9
2018-Nov-04 21:00N 50°27' W 001°21'919.0
2018-Nov-04 20:30N 50°30' W 001°08'816.8
2018-Nov-04 20:03N 50°36' W 000°60'117.8
2018-Nov-04 20:00N 50°37' W 000°59'510.2
2018-Nov-04 19:30N 50°42' W 000°57'613.8
2018-Nov-04 19:04N 50°45' W 001°06'116.9
2018-Nov-04 19:01N 50°45' W 001°07'815.7
2018-Nov-04 18:31N 50°47' W 001°19'4 8.0
2018-Nov-04 18:03N 50°50' W 001°20'0 7.2
2018-Nov-04 18:00N 50°51' W 001°20'4 7.1
2018-Nov-04 17:31N 50°53' W 001°24'0 0.7
2018-Nov-04 17:00N 50°54' W 001°24'0 0.0
2018-Nov-04 16:30N 50°54' W 001°24'0 0.0
2018-Nov-04 16:03N 50°54' W 001°24'0 0.0
2018-Nov-04 16:00N 50°54' W 001°24'0 0.0
2018-Nov-04 15:30N 50°54' W 001°24'0 0.0
2018-Nov-04 15:03N 50°54' W 001°24'0 0.0
2018-Nov-04 15:00N 50°54' W 001°24'0 0.0
2018-Nov-04 14:30N 50°54' W 001°24'0 0.0
2018-Nov-04 14:03N 50°54' W 001°24'0 0.0
2018-Nov-04 14:00N 50°54' W 001°24'0 0.0
2018-Nov-04 13:30N 50°54' W 001°24'0 0.0
2018-Nov-04 13:03N 50°54' W 001°24'0 0.0
2018-Nov-04 13:00N 50°54' W 001°24'0 0.0
2018-Nov-04 12:30N 50°54' W 001°24'0 0.0
2018-Nov-04 12:03N 50°54' W 001°24'0 0.0
2018-Nov-04 12:00N 50°54' W 001°24'0 0.0
2018-Nov-04 11:30N 50°54' W 001°24'0 0.0
2018-Nov-04 11:03N 50°54' W 001°24'0 0.0
2018-Nov-04 11:00N 50°54' W 001°24'0 0.0
2018-Nov-04 10:30N 50°54' W 001°24'0 0.0
2018-Nov-04 10:03N 50°54' W 001°24'0 0.0
2018-Nov-04 09:57N 50°54' W 001°24'0 0.0
2018-Nov-04 09:30N 50°54' W 001°24'0 0.0
2018-Nov-04 09:03N 50°54' W 001°24'0 0.0
2018-Nov-04 09:00N 50°54' W 001°24'0 0.0
2018-Nov-04 08:30N 50°54' W 001°24'0 0.0
2018-Nov-04 08:03N 50°54' W 001°24'0 0.0
2018-Nov-04 08:00N 50°54' W 001°24'0 0.0
2018-Nov-04 07:30N 50°54' W 001°24'0 0.0
2018-Nov-04 07:03N 50°54' W 001°24'0 0.0
2018-Nov-04 07:00N 50°54' W 001°24'0 0.2
2018-Nov-04 06:30N 50°53' W 001°24'2 4.0
2018-Nov-04 06:03N 50°52' W 001°22'110.7
2018-Nov-04 06:00N 50°52' W 001°22'4 8.9
2018-Nov-04 05:30N 50°48' W 001°18'4 9.2
2018-Nov-04 05:03N 50°47' W 001°12'115.3
2018-Nov-04 05:00N 50°46' W 001°11'815.5
2018-Nov-04 04:30N 50°43' W 000°60'510.6
2018-Nov-04 04:03N 50°39' W 000°56'0 5.7
2018-Nov-04 04:00N 50°39' W 000°55'713.8
2018-Nov-04 03:31N 50°35' W 000°46'816.7
2018-Nov-04 03:03N 50°34' W 000°35'117.4
2018-Nov-04 03:00N 50°34' W 000°33'1418.2
2018-Nov-04 02:14N 50°32' W 000°11'718.5
2018-Nov-04 01:52N 50°33' W 000°01'1118.5
2018-Nov-04 01:17N 50°35' E 000°16'418.6
2018-Nov-04 01:04N 50°36' E 000°23'118.7
2018-Nov-04 01:01N 50°36' E 000°24'918.5
2018-Nov-04 00:30N 50°39' E 000°38'818.2
2018-Nov-04 00:04N 50°44' E 000°48'118.0
2018-Nov-04 00:01N 50°44' E 000°50'917.6
2018-Nov-03 23:30N 50°49' E 001°01'817.2
2018-Nov-03 23:04N 50°53' E 001°12'116.9
2018-Nov-03 23:01N 50°53' E 001°13'816.2
2018-Nov-03 22:31N 50°58' E 001°23'3015.1
2018-Nov-03 20:31N 51°22' E 001°53'613.0
2018-Nov-03 20:04N 51°24' E 002°02'117.8
2018-Nov-03 20:01N 51°24' E 002°03'917.3
2018-Nov-03 19:30N 51°21' E 002°16'716.2
2018-Nov-03 19:03N 51°22' E 002°27'117.1
2018-Nov-03 19:01N 51°22' E 002°29'816.8
2018-Nov-03 18:30N 51°22' E 002°42'512.0
2018-Nov-03 18:03N 51°22' E 002°51'117.7
2018-Nov-03 18:00N 51°22' E 002°52'816.8
2018-Nov-03 17:30N 51°24' E 003°05'511.7
2018-Nov-03 17:03N 51°21' E 003°12'0 5.5
2018-Nov-03 17:01N 51°21' E 003°12'1 1.1
2018-Nov-03 16:29N 51°20' E 003°12'0 0.0
2018-Nov-03 16:02N 51°20' E 003°12'0 0.0
2018-Nov-03 15:59N 51°20' E 003°12'0 0.0
2018-Nov-03 15:29N 51°20' E 003°12'0 0.0
2018-Nov-03 15:02N 51°20' E 003°12'0 0.0
2018-Nov-03 14:59N 51°20' E 003°12'0 0.0
2018-Nov-03 14:29N 51°20' E 003°12'0 0.0
2018-Nov-03 14:02N 51°20' E 003°12'0 0.0
2018-Nov-03 13:59N 51°20' E 003°12'0 0.0
2018-Nov-03 13:29N 51°20' E 003°12'0 0.0
2018-Nov-03 13:02N 51°20' E 003°12'0 0.0
2018-Nov-03 12:59N 51°20' E 003°12'0 0.0
2018-Nov-03 12:29N 51°20' E 003°12'0 0.0
2018-Nov-03 12:02N 51°20' E 003°12'0 0.0
2018-Nov-03 11:59N 51°20' E 003°12'0 0.0
2018-Nov-03 11:29N 51°20' E 003°12'0 0.0
2018-Nov-03 11:02N 51°20' E 003°12'0 0.0
2018-Nov-03 10:59N 51°20' E 003°12'0 0.0
2018-Nov-03 10:29N 51°20' E 003°12'0 0.0
2018-Nov-03 10:02N 51°20' E 003°12'0 0.0
2018-Nov-03 09:59N 51°20' E 003°12'0 0.0
2018-Nov-03 09:29N 51°20' E 003°12'0 0.0
2018-Nov-03 09:02N 51°20' E 003°12'0 0.0
2018-Nov-03 08:59N 51°20' E 003°12'0 0.0
2018-Nov-03 08:29N 51°20' E 003°12'0 0.0
2018-Nov-03 08:02N 51°20' E 003°12'0 0.0
2018-Nov-03 07:59N 51°20' E 003°12'0 0.0
2018-Nov-03 07:29N 51°20' E 003°12'0 0.0
2018-Nov-03 07:02N 51°20' E 003°12'0 0.0
2018-Nov-03 06:59N 51°20' E 003°12'0 0.0
2018-Nov-03 06:29N 51°20' E 003°12'0 0.0
2018-Nov-03 06:02N 51°20' E 003°12'0 0.0
2018-Nov-03 05:56N 51°20' E 003°12'0 0.0
2018-Nov-03 05:29N 51°20' E 003°12'0 0.0
2018-Nov-03 05:02N 51°20' E 003°12'0 0.0
2018-Nov-03 04:59N 51°20' E 003°12'0 0.0
2018-Nov-03 04:29N 51°20' E 003°12'0 0.0
2018-Nov-03 04:02N 51°20' E 003°12'0 0.0
2018-Nov-03 03:59N 51°20' E 003°12'0 0.0
2018-Nov-03 03:29N 51°20' E 003°12'0 0.0
2018-Nov-03 03:02N 51°20' E 003°12'0 0.0
2018-Nov-03 02:59N 51°20' E 003°12'0 0.0
2018-Nov-03 02:29N 51°20' E 003°12'0 0.0
2018-Nov-03 02:02N 51°20' E 003°12'0 0.0
2018-Nov-03 01:56N 51°20' E 003°12'0 0.0
2018-Nov-03 01:26N 51°20' E 003°12'0 0.0
2018-Nov-03 01:02N 51°20' E 003°12'0 0.0
2018-Nov-03 00:59N 51°20' E 003°12'0 0.0
2018-Nov-03 00:29N 51°20' E 003°12'0 0.0
2018-Nov-03 00:02N 51°20' E 003°12'0 0.0
2018-Nov-02 23:59N 51°20' E 003°12'0 0.0
2018-Nov-02 23:29N 51°20' E 003°12'0 0.0
2018-Nov-02 23:02N 51°20' E 003°12'0 0.0
2018-Nov-02 22:59N 51°20' E 003°12'0 0.0
2018-Nov-02 22:29N 51°20' E 003°12'0 0.0
2018-Nov-02 22:02N 51°20' E 003°12'0 0.0
2018-Nov-02 21:59N 51°20' E 003°12'0 0.0
2018-Nov-02 21:29N 51°20' E 003°12'0 0.0
2018-Nov-02 20:59N 51°20' E 003°12'0 0.0
2018-Nov-02 20:29N 51°20' E 003°12'0 0.0
2018-Nov-02 20:02N 51°20' E 003°12'0 0.0
2018-Nov-02 19:59N 51°20' E 003°12'0 0.0
2018-Nov-02 19:29N 51°20' E 003°12'0 0.0
2018-Nov-02 19:02N 51°20' E 003°12'0 0.0
2018-Nov-02 18:59N 51°20' E 003°12'0 0.0
2018-Nov-02 18:29N 51°20' E 003°12'0 0.0
2018-Nov-02 18:02N 51°20' E 003°12'0 0.0
2018-Nov-02 17:59N 51°20' E 003°12'0 0.0
2018-Nov-02 17:29N 51°20' E 003°12'0 0.0
2018-Nov-02 17:02N 51°20' E 003°12'0 0.0
2018-Nov-02 16:59N 51°20' E 003°12'0 0.0
2018-Nov-02 16:29N 51°20' E 003°12'0 0.0
2018-Nov-02 16:02N 51°20' E 003°12'0 0.0
2018-Nov-02 15:59N 51°20' E 003°12'0 0.0
2018-Nov-02 15:29N 51°20' E 003°12'0 0.0
2018-Nov-02 15:02N 51°20' E 003°12'0 0.0
2018-Nov-02 14:59N 51°20' E 003°12'0 0.0
2018-Nov-02 14:29N 51°20' E 003°12'0 0.0
2018-Nov-02 13:56N 51°20' E 003°12'0 0.0
2018-Nov-02 13:29N 51°20' E 003°12'0 0.0
2018-Nov-02 13:02N 51°20' E 003°12'0 0.0
2018-Nov-02 12:59N 51°20' E 003°12'0 0.0
2018-Nov-02 12:29N 51°20' E 003°12'0 0.0
2018-Nov-02 12:02N 51°20' E 003°12'0 0.0
2018-Nov-02 11:59N 51°20' E 003°12'0 0.0
2018-Nov-02 11:29N 51°20' E 003°12'0 0.0
2018-Nov-02 11:02N 51°20' E 003°12'0 0.0
2018-Nov-02 10:59N 51°20' E 003°12'0 0.0
2018-Nov-02 10:29N 51°20' E 003°12'0 0.0
2018-Nov-02 10:02N 51°20' E 003°12'0 0.0
2018-Nov-02 09:59N 51°20' E 003°12'0 0.0
2018-Nov-02 09:29N 51°20' E 003°12'0 0.0
2018-Nov-02 09:02N 51°20' E 003°12'0 0.0
2018-Nov-02 08:59N 51°20' E 003°12'0 0.0
2018-Nov-02 08:29N 51°20' E 003°12'0 0.0
2018-Nov-02 08:02N 51°20' E 003°12'0 0.0
2018-Nov-02 07:59N 51°20' E 003°12'0 0.7
2018-Nov-02 07:31N 51°21' E 003°12'4 8.4
2018-Nov-02 07:03N 51°24' E 003°08'115.8
2018-Nov-02 07:00N 51°24' E 003°07'817.0
2018-Nov-02 06:30N 51°22' E 002°54'613.1
2018-Nov-02 06:03N 51°22' E 002°44'0 6.2
2018-Nov-02 06:00N 51°22' E 002°44'815.1
2018-Nov-02 05:27N 51°22' E 002°31'614.8
2018-Nov-02 05:03N 51°20' E 002°22'114.6
2018-Nov-02 05:00N 51°20' E 002°21'817.0
2018-Nov-02 04:30N 51°16' E 002°09'818.6
2018-Nov-02 04:03N 51°12' E 001°58'118.6
2018-Nov-02 04:00N 51°11' E 001°56'918.2
2018-Nov-02 03:31N 51°06' E 001°44'817.4
2018-Nov-02 03:03N 51°01' E 001°34'117.5
2018-Nov-02 03:00N 51°01' E 001°33'816.2
2018-Nov-02 02:30N 50°54' E 001°26'716.6
2018-Nov-02 02:03N 50°47' E 001°25'117.3
2018-Nov-02 02:00N 50°46' E 001°25'816.6
2018-Nov-02 01:30N 50°39' E 001°18'817.5
2018-Nov-02 01:03N 50°34' E 001°09'1417.0
2018-Nov-02 00:13N 50°25' E 000°51'917.6
2018-Nov-01 23:43N 50°23' E 000°37'2318.1
2018-Nov-01 22:27N 50°18' E 000°02'2617.8
2018-Nov-01 20:57N 50°29' W 000°36'817.3
2018-Nov-01 20:30N 50°32' W 000°47'816.8
2018-Nov-01 20:03N 50°37' W 000°54'117.0
2018-Nov-01 20:00N 50°38' W 000°55'510.5
2018-Nov-01 19:30N 50°43' W 000°59'715.8
2018-Nov-01 19:03N 50°46' W 001°09'116.8
2018-Nov-01 19:00N 50°46' W 001°11'510.6
2018-Nov-01 18:30N 50°48' W 001°18'4 8.7
2018-Nov-01 18:03N 50°51' W 001°21'110.8
2018-Nov-01 18:00N 50°52' W 001°22'2 4.4
2018-Nov-01 17:28N 50°53' W 001°24'0 0.0
2018-Nov-01 16:58N 50°53' W 001°24'0 0.0
2018-Nov-01 16:28N 50°53' W 001°24'0 0.0
2018-Nov-01 16:01N 50°53' W 001°24'0 0.0
2018-Nov-01 15:58N 50°53' W 001°24'0 0.0
2018-Nov-01 15:28N 50°53' W 001°24'0 0.0
2018-Nov-01 15:01N 50°53' W 001°24'0 0.0
2018-Nov-01 14:58N 50°53' W 001°24'0 0.0
2018-Nov-01 14:01N 50°53' W 001°24'0 0.0
2018-Nov-01 13:58N 50°53' W 001°24'0 0.0
2018-Nov-01 13:28N 50°53' W 001°24'0 0.0
2018-Nov-01 13:04N 50°53' W 001°24'0 0.0
2018-Nov-01 13:00N 50°53' W 001°24'0 0.0
2018-Nov-01 12:28N 50°53' W 001°24'0 0.0
2018-Nov-01 11:58N 50°53' W 001°24'0 0.0
2018-Nov-01 11:28N 50°53' W 001°24'0 0.0
2018-Nov-01 11:01N 50°53' W 001°24'0 0.0
2018-Nov-01 10:58N 50°53' W 001°24'0 0.0
2018-Nov-01 10:28N 50°53' W 001°24'0 0.0
2018-Nov-01 10:01N 50°53' W 001°24'0 0.0
2018-Nov-01 09:58N 50°53' W 001°24'0 0.0
2018-Nov-01 09:28N 50°53' W 001°24'0 0.0
2018-Nov-01 08:58N 50°53' W 001°24'0 0.0
2018-Nov-01 08:28N 50°53' W 001°24'0 0.0
2018-Nov-01 08:01N 50°53' W 001°24'0 0.0
2018-Nov-01 07:58N 50°53' W 001°24'0 0.0
2018-Nov-01 07:28N 50°53' W 001°24'0 0.0
2018-Nov-01 07:01N 50°53' W 001°24'0 0.0
2018-Nov-01 06:58N 50°53' W 001°24'0 0.0
2018-Nov-01 06:30N 50°53' W 001°24'0 1.1
2018-Nov-01 06:04N 50°53' W 001°24'0 6.5
2018-Nov-01 06:00N 50°53' W 001°23'4 9.0
2018-Nov-01 05:30N 50°50' W 001°18'3 7.7
2018-Nov-01 05:04N 50°46' W 001°16'113.9
2018-Nov-01 05:00N 50°46' W 001°15'917.3
2018-Nov-01 04:31N 50°44' W 001°02'511.7
2018-Nov-01 04:03N 50°39' W 000°57'111.8
2018-Nov-01 04:01N 50°39' W 000°57'713.4
2018-Nov-01 03:30N 50°33' W 001°01'715.7
2018-Nov-01 03:04N 50°30' W 001°11'116.5
2018-Nov-01 03:01N 50°29' W 001°12'916.6
2018-Nov-01 02:30N 50°26' W 001°24'916.9
2018-Nov-01 01:59N 50°24' W 001°37'1717.4
2018-Nov-01 01:02N 50°18' W 002°02'217.7
2018-Nov-01 00:57N 50°17' W 002°04'2018.2
2018-Oct-31 23:49N 50°14' W 002°36'718.6
2018-Oct-31 23:27N 50°13' W 002°46'718.8
2018-Oct-31 23:03N 50°11' W 002°57'119.9
2018-Oct-31 23:01N 50°11' W 002°59'1020.0
2018-Oct-31 22:30N 50°06' W 003°13'919.8
2018-Oct-31 22:03N 50°02' W 003°25'119.6
2018-Oct-31 22:00N 50°02' W 003°26'1019.4
2018-Oct-31 21:30N 49°58' W 003°40'1019.2
2018-Oct-31 21:00N 49°54' W 003°54'  
Track history (hours):
 
Tides and Currents Weather Stations Pressure Air Temp Water Temp Dewpoint Dewpoint Depression Visibility Wind Speed Wind Dir Waves Ship Positions

Rms Queen Mary 2

Last reported at 2018-Nov-10 03:00 UTC. Time now 2018-Nov-14 03:29 UTC.
Position N 41°24' W 060°48'.

Length 345 m; draft 10.3 m.

Type: Passenger vessel. MMSI: 310627000.

Wind from 270 at 25 knots

Barometer 1026.9 mb
Air temperature 13.5 ° C
Visibility: greater than 10.8 NM
Dewpoint 8.5 ° C
Water temperature 19.1 ° C

Date/timePositionNaut miles runAvg speedWind from/ knotsBaromVisibWave heightAir tempDewpointWater temp
2018-Nov-10 03:00N 41°24' W 060°48'26920.7 270 / 251026.910.8 13.5 8.519.1
2018-Nov-09 14:00N 42°18' W 054°54'25221.0 300 / 201028.310.8 13.5 7.4 8.8
2018-Nov-09 02:00N 43°06' W 049°18'   270 / 301020.927.0
2018-Nov-05 03:21N 49°42' W 004°33'620.5
2018-Nov-05 03:03N 49°43' W 004°23'220.4
2018-Nov-05 02:58N 49°43' W 004°21'1120.5
2018-Nov-05 02:26N 49°47' W 004°05'820.8
2018-Nov-05 02:01N 49°49' W 003°52'421.3
2018-Nov-05 01:51N 49°50' W 003°47'721.3
2018-Nov-05 01:30N 49°52' W 003°36'1022.2
2018-Nov-05 01:03N 49°55' W 003°21'122.2
2018-Nov-05 01:00N 49°56' W 003°19'1121.5
2018-Nov-05 00:30N 49°59' W 003°03'920.2
2018-Nov-05 00:03N 50°01' W 002°50'220.7
2018-Nov-04 23:58N 50°01' W 002°47'2720.9
2018-Nov-04 22:41N 50°12' W 002°08'420.7
2018-Nov-04 22:30N 50°13' W 002°03'920.3
2018-Nov-04 22:03N 50°18' W 001°50'120.1
2018-Nov-04 22:00N 50°19' W 001°49'1019.6
2018-Nov-04 21:30N 50°23' W 001°36'919.5
2018-Nov-04 21:02N 50°26' W 001°22'119.9
2018-Nov-04 21:00N 50°27' W 001°21'919.0
2018-Nov-04 20:30N 50°30' W 001°08'816.8
2018-Nov-04 20:03N 50°36' W 000°60'117.8
2018-Nov-04 20:00N 50°37' W 000°59'510.2
2018-Nov-04 19:30N 50°42' W 000°57'613.8
2018-Nov-04 19:04N 50°45' W 001°06'116.9
2018-Nov-04 19:01N 50°45' W 001°07'815.7
2018-Nov-04 18:31N 50°47' W 001°19'4 8.0
2018-Nov-04 18:03N 50°50' W 001°20'0 7.2
2018-Nov-04 18:00N 50°51' W 001°20'4 7.1
2018-Nov-04 17:31N 50°53' W 001°24'0 0.7
2018-Nov-04 17:00N 50°54' W 001°24'0 0.0
2018-Nov-04 16:30N 50°54' W 001°24'0 0.0
2018-Nov-04 16:03N 50°54' W 001°24'0 0.0
2018-Nov-04 16:00N 50°54' W 001°24'0 0.0
2018-Nov-04 15:30N 50°54' W 001°24'0 0.0
2018-Nov-04 15:03N 50°54' W 001°24'0 0.0
2018-Nov-04 15:00N 50°54' W 001°24'0 0.0
2018-Nov-04 14:30N 50°54' W 001°24'0 0.0
2018-Nov-04 14:03N 50°54' W 001°24'0 0.0
2018-Nov-04 14:00N 50°54' W 001°24'0 0.0
2018-Nov-04 13:30N 50°54' W 001°24'0 0.0
2018-Nov-04 13:03N 50°54' W 001°24'0 0.0
2018-Nov-04 13:00N 50°54' W 001°24'0 0.0
2018-Nov-04 12:30N 50°54' W 001°24'0 0.0
2018-Nov-04 12:03N 50°54' W 001°24'0 0.0
2018-Nov-04 12:00N 50°54' W 001°24'0 0.0
2018-Nov-04 11:30N 50°54' W 001°24'0 0.0
2018-Nov-04 11:03N 50°54' W 001°24'0 0.0
2018-Nov-04 11:00N 50°54' W 001°24'0 0.0
2018-Nov-04 10:30N 50°54' W 001°24'0 0.0
2018-Nov-04 10:03N 50°54' W 001°24'0 0.0
2018-Nov-04 09:57N 50°54' W 001°24'0 0.0
2018-Nov-04 09:30N 50°54' W 001°24'0 0.0
2018-Nov-04 09:03N 50°54' W 001°24'0 0.0
2018-Nov-04 09:00N 50°54' W 001°24'0 0.0
2018-Nov-04 08:30N 50°54' W 001°24'0 0.0
2018-Nov-04 08:03N 50°54' W 001°24'0 0.0
2018-Nov-04 08:00N 50°54' W 001°24'0 0.0
2018-Nov-04 07:30N 50°54' W 001°24'0 0.0
2018-Nov-04 07:03N 50°54' W 001°24'0 0.0
2018-Nov-04 07:00N 50°54' W 001°24'0 0.2
2018-Nov-04 06:30N 50°53' W 001°24'2 4.0
2018-Nov-04 06:03N 50°52' W 001°22'110.7
2018-Nov-04 06:00N 50°52' W 001°22'4 8.9
2018-Nov-04 05:30N 50°48' W 001°18'4 9.2
2018-Nov-04 05:03N 50°47' W 001°12'115.3
2018-Nov-04 05:00N 50°46' W 001°11'815.5
2018-Nov-04 04:30N 50°43' W 000°60'510.6
2018-Nov-04 04:03N 50°39' W 000°56'0 5.7
2018-Nov-04 04:00N 50°39' W 000°55'713.8
2018-Nov-04 03:31N 50°35' W 000°46'816.7
2018-Nov-04 03:03N 50°34' W 000°35'117.4
2018-Nov-04 03:00N 50°34' W 000°33'1418.2
2018-Nov-04 02:14N 50°32' W 000°11'718.5
2018-Nov-04 01:52N 50°33' W 000°01'1118.5
2018-Nov-04 01:17N 50°35' E 000°16'418.6
2018-Nov-04 01:04N 50°36' E 000°23'118.7
2018-Nov-04 01:01N 50°36' E 000°24'918.5
2018-Nov-04 00:30N 50°39' E 000°38'818.2
2018-Nov-04 00:04N 50°44' E 000°48'118.0
2018-Nov-04 00:01N 50°44' E 000°50'917.6
2018-Nov-03 23:30N 50°49' E 001°01'817.2
2018-Nov-03 23:04N 50°53' E 001°12'116.9
2018-Nov-03 23:01N 50°53' E 001°13'816.2
2018-Nov-03 22:31N 50°58' E 001°23'3015.1
2018-Nov-03 20:31N 51°22' E 001°53'613.0
2018-Nov-03 20:04N 51°24' E 002°02'117.8
2018-Nov-03 20:01N 51°24' E 002°03'917.3
2018-Nov-03 19:30N 51°21' E 002°16'716.2
2018-Nov-03 19:03N 51°22' E 002°27'117.1
2018-Nov-03 19:01N 51°22' E 002°29'816.8
2018-Nov-03 18:30N 51°22' E 002°42'512.0
2018-Nov-03 18:03N 51°22' E 002°51'117.7
2018-Nov-03 18:00N 51°22' E 002°52'816.8
2018-Nov-03 17:30N 51°24' E 003°05'511.7
2018-Nov-03 17:03N 51°21' E 003°12'0 5.5
2018-Nov-03 17:01N 51°21' E 003°12'1 1.1
2018-Nov-03 16:29N 51°20' E 003°12'0 0.0
2018-Nov-03 16:02N 51°20' E 003°12'0 0.0
2018-Nov-03 15:59N 51°20' E 003°12'0 0.0
2018-Nov-03 15:29N 51°20' E 003°12'0 0.0
2018-Nov-03 15:02N 51°20' E 003°12'0 0.0
2018-Nov-03 14:59N 51°20' E 003°12'0 0.0
2018-Nov-03 14:29N 51°20' E 003°12'0 0.0
2018-Nov-03 14:02N 51°20' E 003°12'0 0.0
2018-Nov-03 13:59N 51°20' E 003°12'0 0.0
2018-Nov-03 13:29N 51°20' E 003°12'0 0.0
2018-Nov-03 13:02N 51°20' E 003°12'0 0.0
2018-Nov-03 12:59N 51°20' E 003°12'0 0.0
2018-Nov-03 12:29N 51°20' E 003°12'0 0.0
2018-Nov-03 12:02N 51°20' E 003°12'0 0.0
2018-Nov-03 11:59N 51°20' E 003°12'0 0.0
2018-Nov-03 11:29N 51°20' E 003°12'0 0.0
2018-Nov-03 11:02N 51°20' E 003°12'0 0.0
2018-Nov-03 10:59N 51°20' E 003°12'0 0.0
2018-Nov-03 10:29N 51°20' E 003°12'0 0.0
2018-Nov-03 10:02N 51°20' E 003°12'0 0.0
2018-Nov-03 09:59N 51°20' E 003°12'0 0.0
2018-Nov-03 09:29N 51°20' E 003°12'0 0.0
2018-Nov-03 09:02N 51°20' E 003°12'0 0.0
2018-Nov-03 08:59N 51°20' E 003°12'0 0.0
2018-Nov-03 08:29N 51°20' E 003°12'0 0.0
2018-Nov-03 08:02N 51°20' E 003°12'0 0.0
2018-Nov-03 07:59N 51°20' E 003°12'0 0.0
2018-Nov-03 07:29N 51°20' E 003°12'0 0.0
2018-Nov-03 07:02N 51°20' E 003°12'0 0.0
2018-Nov-03 06:59N 51°20' E 003°12'0 0.0
2018-Nov-03 06:29N 51°20' E 003°12'0 0.0
2018-Nov-03 06:02N 51°20' E 003°12'0 0.0
2018-Nov-03 05:56N 51°20' E 003°12'0 0.0
2018-Nov-03 05:29N 51°20' E 003°12'0 0.0
2018-Nov-03 05:02N 51°20' E 003°12'0 0.0
2018-Nov-03 04:59N 51°20' E 003°12'0 0.0
2018-Nov-03 04:29N 51°20' E 003°12'0 0.0
2018-Nov-03 04:02N 51°20' E 003°12'0 0.0
2018-Nov-03 03:59N 51°20' E 003°12'0 0.0
2018-Nov-03 03:29N 51°20' E 003°12'0 0.0
2018-Nov-03 03:02N 51°20' E 003°12'0 0.0
2018-Nov-03 02:59N 51°20' E 003°12'0 0.0
2018-Nov-03 02:29N 51°20' E 003°12'0 0.0
2018-Nov-03 02:02N 51°20' E 003°12'0 0.0
2018-Nov-03 01:56N 51°20' E 003°12'0 0.0
2018-Nov-03 01:26N 51°20' E 003°12'0 0.0
2018-Nov-03 01:02N 51°20' E 003°12'0 0.0
2018-Nov-03 00:59N 51°20' E 003°12'0 0.0
2018-Nov-03 00:29N 51°20' E 003°12'0 0.0
2018-Nov-03 00:02N 51°20' E 003°12'0 0.0
2018-Nov-02 23:59N 51°20' E 003°12'0 0.0
2018-Nov-02 23:29N 51°20' E 003°12'0 0.0
2018-Nov-02 23:02N 51°20' E 003°12'0 0.0
2018-Nov-02 22:59N 51°20' E 003°12'0 0.0
2018-Nov-02 22:29N 51°20' E 003°12'0 0.0
2018-Nov-02 22:02N 51°20' E 003°12'0 0.0
2018-Nov-02 21:59N 51°20' E 003°12'0 0.0
2018-Nov-02 21:29N 51°20' E 003°12'0 0.0
2018-Nov-02 20:59N 51°20' E 003°12'0 0.0
2018-Nov-02 20:29N 51°20' E 003°12'0 0.0
2018-Nov-02 20:02N 51°20' E 003°12'0 0.0
2018-Nov-02 19:59N 51°20' E 003°12'0 0.0
2018-Nov-02 19:29N 51°20' E 003°12'0 0.0
2018-Nov-02 19:02N 51°20' E 003°12'0 0.0
2018-Nov-02 18:59N 51°20' E 003°12'0 0.0
2018-Nov-02 18:29N 51°20' E 003°12'0 0.0
2018-Nov-02 18:02N 51°20' E 003°12'0 0.0
2018-Nov-02 17:59N 51°20' E 003°12'0 0.0
2018-Nov-02 17:29N 51°20' E 003°12'0 0.0
2018-Nov-02 17:02N 51°20' E 003°12'0 0.0
2018-Nov-02 16:59N 51°20' E 003°12'0 0.0
2018-Nov-02 16:29N 51°20' E 003°12'0 0.0
2018-Nov-02 16:02N 51°20' E 003°12'0 0.0
2018-Nov-02 15:59N 51°20' E 003°12'0 0.0
2018-Nov-02 15:29N 51°20' E 003°12'0 0.0
2018-Nov-02 15:02N 51°20' E 003°12'0 0.0
2018-Nov-02 14:59N 51°20' E 003°12'0 0.0
2018-Nov-02 14:29N 51°20' E 003°12'0 0.0
2018-Nov-02 13:56N 51°20' E 003°12'0 0.0
2018-Nov-02 13:29N 51°20' E 003°12'0 0.0
2018-Nov-02 13:02N 51°20' E 003°12'0 0.0
2018-Nov-02 12:59N 51°20' E 003°12'0 0.0
2018-Nov-02 12:29N 51°20' E 003°12'0 0.0
2018-Nov-02 12:02N 51°20' E 003°12'0 0.0
2018-Nov-02 11:59N 51°20' E 003°12'0 0.0
2018-Nov-02 11:29N 51°20' E 003°12'0 0.0
2018-Nov-02 11:02N 51°20' E 003°12'0 0.0
2018-Nov-02 10:59N 51°20' E 003°12'0 0.0
2018-Nov-02 10:29N 51°20' E 003°12'0 0.0
2018-Nov-02 10:02N 51°20' E 003°12'0 0.0
2018-Nov-02 09:59N 51°20' E 003°12'0 0.0
2018-Nov-02 09:29N 51°20' E 003°12'0 0.0
2018-Nov-02 09:02N 51°20' E 003°12'0 0.0
2018-Nov-02 08:59N 51°20' E 003°12'0 0.0
2018-Nov-02 08:29N 51°20' E 003°12'0 0.0
2018-Nov-02 08:02N 51°20' E 003°12'0 0.0
2018-Nov-02 07:59N 51°20' E 003°12'0 0.7
2018-Nov-02 07:31N 51°21' E 003°12'4 8.4
2018-Nov-02 07:03N 51°24' E 003°08'115.8
2018-Nov-02 07:00N 51°24' E 003°07'817.0
2018-Nov-02 06:30N 51°22' E 002°54'613.1
2018-Nov-02 06:03N 51°22' E 002°44'0 6.2
2018-Nov-02 06:00N 51°22' E 002°44'815.1
2018-Nov-02 05:27N 51°22' E 002°31'614.8
2018-Nov-02 05:03N 51°20' E 002°22'114.6
2018-Nov-02 05:00N 51°20' E 002°21'817.0
2018-Nov-02 04:30N 51°16' E 002°09'818.6
2018-Nov-02 04:03N 51°12' E 001°58'118.6
2018-Nov-02 04:00N 51°11' E 001°56'918.2
2018-Nov-02 03:31N 51°06' E 001°44'817.4
2018-Nov-02 03:03N 51°01' E 001°34'117.5
2018-Nov-02 03:00N 51°01' E 001°33'816.2
2018-Nov-02 02:30N 50°54' E 001°26'716.6
2018-Nov-02 02:03N 50°47' E 001°25'117.3
2018-Nov-02 02:00N 50°46' E 001°25'816.6
2018-Nov-02 01:30N 50°39' E 001°18'817.5
2018-Nov-02 01:03N 50°34' E 001°09'1417.0
2018-Nov-02 00:13N 50°25' E 000°51'917.6
2018-Nov-01 23:43N 50°23' E 000°37'2318.1
2018-Nov-01 22:27N 50°18' E 000°02'2617.8
2018-Nov-01 20:57N 50°29' W 000°36'817.3
2018-Nov-01 20:30N 50°32' W 000°47'816.8
2018-Nov-01 20:03N 50°37' W 000°54'117.0
2018-Nov-01 20:00N 50°38' W 000°55'510.5
2018-Nov-01 19:30N 50°43' W 000°59'715.8
2018-Nov-01 19:03N 50°46' W 001°09'116.8
2018-Nov-01 19:00N 50°46' W 001°11'510.6
2018-Nov-01 18:30N 50°48' W 001°18'4 8.7
2018-Nov-01 18:03N 50°51' W 001°21'110.8
2018-Nov-01 18:00N 50°52' W 001°22'2 4.4
2018-Nov-01 17:28N 50°53' W 001°24'0 0.0
2018-Nov-01 16:58N 50°53' W 001°24'0 0.0
2018-Nov-01 16:28N 50°53' W 001°24'0 0.0
2018-Nov-01 16:01N 50°53' W 001°24'0 0.0
2018-Nov-01 15:58N 50°53' W 001°24'0 0.0
2018-Nov-01 15:28N 50°53' W 001°24'0 0.0
2018-Nov-01 15:01N 50°53' W 001°24'0 0.0
2018-Nov-01 14:58N 50°53' W 001°24'0 0.0
2018-Nov-01 14:01N 50°53' W 001°24'0 0.0
2018-Nov-01 13:58N 50°53' W 001°24'0 0.0
2018-Nov-01 13:28N 50°53' W 001°24'0 0.0
2018-Nov-01 13:04N 50°53' W 001°24'0 0.0
2018-Nov-01 13:00N 50°53' W 001°24'0 0.0
2018-Nov-01 12:28N 50°53' W 001°24'0 0.0
2018-Nov-01 11:58N 50°53' W 001°24'0 0.0
2018-Nov-01 11:28N 50°53' W 001°24'0 0.0
2018-Nov-01 11:01N 50°53' W 001°24'0 0.0
2018-Nov-01 10:58N 50°53' W 001°24'0 0.0
2018-Nov-01 10:28N 50°53' W 001°24'0 0.0
2018-Nov-01 10:01N 50°53' W 001°24'0 0.0
2018-Nov-01 09:58N 50°53' W 001°24'0 0.0
2018-Nov-01 09:28N 50°53' W 001°24'0 0.0
2018-Nov-01 08:58N 50°53' W 001°24'0 0.0
2018-Nov-01 08:28N 50°53' W 001°24'0 0.0
2018-Nov-01 08:01N 50°53' W 001°24'0 0.0
2018-Nov-01 07:58N 50°53' W 001°24'0 0.0
2018-Nov-01 07:28N 50°53' W 001°24'0 0.0
2018-Nov-01 07:01N 50°53' W 001°24'0 0.0
2018-Nov-01 06:58N 50°53' W 001°24'0 0.0
2018-Nov-01 06:30N 50°53' W 001°24'0 1.1
2018-Nov-01 06:04N 50°53' W 001°24'0 6.5
2018-Nov-01 06:00N 50°53' W 001°23'4 9.0
2018-Nov-01 05:30N 50°50' W 001°18'3 7.7
2018-Nov-01 05:04N 50°46' W 001°16'113.9
2018-Nov-01 05:00N 50°46' W 001°15'917.3
2018-Nov-01 04:31N 50°44' W 001°02'511.7
2018-Nov-01 04:03N 50°39' W 000°57'111.8
2018-Nov-01 04:01N 50°39' W 000°57'713.4
2018-Nov-01 03:30N 50°33' W 001°01'715.7
2018-Nov-01 03:04N 50°30' W 001°11'116.5
2018-Nov-01 03:01N 50°29' W 001°12'916.6
2018-Nov-01 02:30N 50°26' W 001°24'916.9
2018-Nov-01 01:59N 50°24' W 001°37'1717.4
2018-Nov-01 01:02N 50°18' W 002°02'217.7
2018-Nov-01 00:57N 50°17' W 002°04'2018.2
2018-Oct-31 23:49N 50°14' W 002°36'718.6
2018-Oct-31 23:27N 50°13' W 002°46'718.8
2018-Oct-31 23:03N 50°11' W 002°57'119.9
2018-Oct-31 23:01N 50°11' W 002°59'1020.0
2018-Oct-31 22:30N 50°06' W 003°13'919.8
2018-Oct-31 22:03N 50°02' W 003°25'119.6
2018-Oct-31 22:00N 50°02' W 003°26'1019.4
2018-Oct-31 21:30N 49°58' W 003°40'1019.2
2018-Oct-31 21:00N 49°54' W 003°54'  

Dump ship's entire track history